Palmer Lake, CO (80133)

7:05 PM MDT on July 07, 2015 (GMT -0600)
Wags | | Change Station
CLOSE
Current Station
Personal Weather Station
Location: Palmer Lake, CO
Elevation: 7228 ft
Nearby Weather Stations

Elev 7228 ft 39.12 °N, 104.92 °W | Updated 34 seconds ago

Overcast
Overcast
56.7 °F
Feels Like 56.7 °F
N
0.8
Wind Variable Wind from NNW
Gusts 2.9 mph

Today
High -- | Low -- °F
--% Chance of Precip.
Yesterday
High -- | Low -- °F
Precip. -- in
5:40 AM 8:28 PM
Waning Gibbous, 59% visible
Pressure 30.02 in
Visibility 4.0 miles
Clouds Scattered Clouds 700 ft
Dew Point 54 °F
Humidity 91%
Rainfall 0.20 in
Snow Depth Not available.
UV 1 out of 12
Pollen 3.40 out of 12
Air Quality Not available.
Flu Activity Not available.
METAR KAFF 080058Z AUTO 16007KT 4SM BR SCT007 13/13 A3018 RMK AO2 RAE11 SLP165 P0001

More Conditions Fewer Conditions

Pressure 30.02 in
Visibility 4.0 miles
Clouds Scattered Clouds 700 ft
Dew Point 54 °F
Humidity 91%
Rainfall 0.20 in
Snow Depth Not available.
UV 1 out of 12
Pollen 3.40 out of 12
Air Quality Not available.
Flu Activity Not available.
METAR KAFF 080058Z AUTO 16007KT 4SM BR SCT007 13/13 A3018 RMK AO2 RAE11 SLP165 P0001

More Conditions Fewer Conditions

10-Day Weather Forecast

×

Almanac

Astronomy

Jul. 07, 2015 Rise Set
Actual Time
Civil Twilight
Nautical Twilight
Astronomical Twilight
Moon
Length of Visible Light
Length of Day
Tomorrow will be .
, % of the Moon is Illuminated

Today's Extremes

State Highs State Lows

Community

WunderPhotos

Upload Photos

1,835,985 photos uploaded!

WunderBlogs® & News

Nearby

Air Quality

  Air Quality AQ Index Pollutant
Not available.

Snow Depth

Station Depth Elevation

Earthquake Activity

City Distance Mag. Time & Date
Minimum magnitude displayed is 2.5.

Coastal Water Temperatures

Place Temperature

Stations

Nearby Weather Stations

Station Location Temp. Windchill Dew Point Humidity Wind Precip. Elev Updated Type